createdAt,value
2017-04-30T00:00:13.832Z,940.88
2017-04-30T00:00:42.046Z,940.89
2017-04-30T00:01:10.146Z,940.87
2017-04-30T00:01:38.249Z,940.88
2017-04-30T00:02:06.364Z,940.89
2017-04-30T00:02:34.372Z,940.92
2017-04-30T00:03:02.482Z,940.84
2017-04-30T00:03:30.501Z,940.96
2017-04-30T00:03:58.613Z,940.98
2017-04-30T00:04:26.713Z,940.99
2017-04-30T00:04:54.824Z,940.95
2017-04-30T00:05:22.923Z,940.94
2017-04-30T00:05:51.044Z,941
2017-04-30T00:06:19.034Z,940.92
2017-04-30T00:06:47.154Z,940.88
2017-04-30T00:07:15.263Z,940.97
2017-04-30T00:07:43.378Z,940.93
2017-04-30T00:08:11.503Z,940.94
2017-04-30T00:08:39.518Z,940.93
2017-04-30T00:09:07.514Z,940.95
2017-04-30T00:09:35.614Z,940.92
2017-04-30T00:10:03.728Z,940.92
2017-04-30T00:10:31.858Z,940.89
2017-04-30T00:10:59.965Z,940.89
2017-04-30T00:11:28.065Z,940.86
2017-04-30T00:11:55.978Z,940.93
2017-04-30T00:12:24.086Z,940.87
2017-04-30T00:12:52.191Z,940.89
2017-04-30T00:13:20.320Z,940.88
2017-04-30T00:13:48.338Z,940.87
2017-04-30T00:14:16.436Z,940.85
2017-04-30T00:14:44.465Z,940.9
2017-04-30T00:15:12.559Z,940.86
2017-04-30T00:15:40.672Z,940.87
2017-04-30T00:16:08.783Z,940.9
2017-04-30T00:16:36.889Z,940.89
2017-04-30T00:17:04.993Z,940.9
2017-04-30T00:17:33.146Z,940.95
2017-04-30T00:18:01.243Z,940.89
2017-04-30T00:18:29.344Z,940.95
2017-04-30T00:18:57.361Z,940.93
2017-04-30T00:19:25.464Z,940.93
2017-04-30T00:19:53.568Z,940.95
2017-04-30T00:20:21.670Z,940.95
2017-04-30T00:20:49.780Z,940.97
2017-04-30T00:21:17.888Z,940.98
2017-04-30T00:21:45.994Z,941
2017-04-30T00:22:14.000Z,940.96
2017-04-30T00:22:42.123Z,940.98
2017-04-30T00:23:10.229Z,941.02
2017-04-30T00:23:38.245Z,941
2017-04-30T00:24:06.248Z,941
2017-04-30T00:24:34.365Z,940.97
2017-04-30T00:25:02.670Z,940.99
2017-04-30T00:25:30.684Z,940.99
2017-04-30T00:25:58.805Z,940.93
2017-04-30T00:26:26.823Z,940.97
2017-04-30T00:26:54.828Z,940.99
2017-04-30T00:27:22.844Z,941.03
2017-04-30T00:27:50.968Z,940.99
2017-04-30T00:28:18.996Z,941
2017-04-30T00:28:47.086Z,941
2017-04-30T00:29:15.182Z,941
2017-04-30T00:29:43.187Z,941.04
2017-04-30T00:30:11.296Z,941.02
2017-04-30T00:30:39.412Z,941.01
2017-04-30T00:31:07.509Z,941.03
2017-04-30T00:31:35.414Z,940.99
2017-04-30T00:32:03.517Z,941.06
2017-04-30T00:32:31.518Z,941.03
2017-04-30T00:32:59.632Z,941.05
2017-04-30T00:33:27.657Z,941
2017-04-30T00:33:55.769Z,940.98
2017-04-30T00:34:23.861Z,940.99
2017-04-30T00:34:51.956Z,940.97
2017-04-30T00:35:20.049Z,940.97
2017-04-30T00:35:48.148Z,940.99
2017-04-30T00:36:16.231Z,940.95
2017-04-30T00:36:44.325Z,940.98
2017-04-30T00:37:12.447Z,940.95
2017-04-30T00:37:40.563Z,940.94
2017-04-30T00:38:08.671Z,940.95
2017-04-30T00:38:36.764Z,940.95
2017-04-30T00:39:04.917Z,940.91
2017-04-30T00:39:33.018Z,940.91
2017-04-30T00:40:01.122Z,940.91
2017-04-30T00:40:29.223Z,940.94
2017-04-30T00:40:57.351Z,940.97
2017-04-30T00:41:25.463Z,940.97
2017-04-30T00:41:53.554Z,941.01
2017-04-30T00:42:21.678Z,941.02
2017-04-30T00:42:49.782Z,941.04
2017-04-30T00:43:17.895Z,941.08
2017-04-30T00:43:45.994Z,941.1
2017-04-30T00:44:14.102Z,941.08
2017-04-30T00:44:42.204Z,941.08
2017-04-30T00:45:10.207Z,941.03
2017-04-30T00:45:38.323Z,941.11
2017-04-30T00:46:06.326Z,941.09
2017-04-30T00:46:34.429Z,941.07
2017-04-30T00:47:02.530Z,941.09
2017-04-30T00:47:30.533Z,941.03
2017-04-30T00:47:58.625Z,941.04
2017-04-30T00:48:26.621Z,941.04
2017-04-30T00:48:54.619Z,941.08
2017-04-30T00:49:22.731Z,941.05
2017-04-30T00:49:50.826Z,941.07
2017-04-30T00:50:18.919Z,941.05
2017-04-30T00:50:47.009Z,941.1
2017-04-30T00:51:15.105Z,941.1
2017-04-30T00:51:43.026Z,941.07
2017-04-30T00:52:11.034Z,941.07
2017-04-30T00:52:39.062Z,941.07
2017-04-30T00:53:07.154Z,941.06
2017-04-30T00:53:35.241Z,941.06
2017-04-30T00:54:03.367Z,941.06
2017-04-30T00:54:31.372Z,941.05
2017-04-30T00:54:59.463Z,941.08
2017-04-30T00:55:27.578Z,941.05
2017-04-30T00:55:55.708Z,941.06
2017-04-30T00:56:23.805Z,941.09
2017-04-30T00:56:51.853Z,941.12
2017-04-30T00:57:19.860Z,941.08
2017-04-30T00:57:47.979Z,941.09
2017-04-30T00:58:16.093Z,941.06
2017-04-30T00:58:44.192Z,941.09
2017-04-30T00:59:12.308Z,941.06
2017-04-30T00:59:40.415Z,941.08
2017-04-30T01:00:08.330Z,941.07
2017-04-30T01:00:36.327Z,941.13
2017-04-30T01:01:04.478Z,941.1
2017-04-30T01:01:32.566Z,941.06
2017-04-30T01:02:00.696Z,941.06
2017-04-30T01:02:28.826Z,941.12
2017-04-30T01:02:56.967Z,941.12
2017-04-30T01:03:25.036Z,941.04
2017-04-30T01:03:53.132Z,941.04
2017-04-30T01:04:21.228Z,941.06
2017-04-30T01:04:49.325Z,941.11
2017-04-30T01:05:17.457Z,941.1
2017-04-30T01:05:45.472Z,941.09
2017-04-30T01:06:13.474Z,941.1
2017-04-30T01:06:41.563Z,941.09
2017-04-30T01:07:09.660Z,941.12
2017-04-30T01:07:37.768Z,941.17
2017-04-30T01:08:05.863Z,941.17
2017-04-30T01:08:33.959Z,941.15
2017-04-30T01:09:02.087Z,941.15
2017-04-30T01:09:30.115Z,941.18
2017-04-30T01:09:58.131Z,941.12
2017-04-30T01:10:26.242Z,941.15
2017-04-30T01:10:54.265Z,941.16
2017-04-30T01:11:22.361Z,941.17
2017-04-30T01:11:50.349Z,941.18
2017-04-30T01:12:18.349Z,941.21
2017-04-30T01:12:46.464Z,941.22
2017-04-30T01:13:14.570Z,941.2
2017-04-30T01:13:42.669Z,941.21
2017-04-30T01:14:10.771Z,941.18
2017-04-30T01:14:38.881Z,941.19
2017-04-30T01:15:06.985Z,941.2
2017-04-30T01:15:35.088Z,941.17
2017-04-30T01:16:03.207Z,941.17
2017-04-30T01:16:31.318Z,941.17
2017-04-30T01:16:59.317Z,941.17
2017-04-30T01:17:27.420Z,941.14
2017-04-30T01:17:55.521Z,941.15
2017-04-30T01:18:23.530Z,941.13
2017-04-30T01:18:51.640Z,941.12
2017-04-30T01:19:19.729Z,941.13
2017-04-30T01:19:47.827Z,941.15
2017-04-30T01:20:15.935Z,941.13
2017-04-30T01:20:44.099Z,941.1
2017-04-30T01:21:12.210Z,941.06
2017-04-30T01:21:40.213Z,941.1
2017-04-30T01:22:08.300Z,941.15
2017-04-30T01:22:36.386Z,941.16
2017-04-30T01:23:04.491Z,941.11
2017-04-30T01:23:32.604Z,941.17
2017-04-30T01:24:00.717Z,941.14
2017-04-30T01:24:28.828Z,941.15
2017-04-30T01:24:56.920Z,941.15
2017-04-30T01:25:24.915Z,941.16
2017-04-30T01:25:53.006Z,941.11
2017-04-30T01:26:21.018Z,941.18
2017-04-30T01:26:49.130Z,941.16
2017-04-30T01:27:17.219Z,941.14
2017-04-30T01:27:45.229Z,941.14
2017-04-30T01:28:13.238Z,941.17
2017-04-30T01:28:41.327Z,941.16
2017-04-30T01:29:09.415Z,941.15
2017-04-30T01:29:37.515Z,941.14
2017-04-30T01:30:05.613Z,941.15
2017-04-30T01:30:33.731Z,941.11
2017-04-30T01:31:01.759Z,941.1
2017-04-30T01:31:29.846Z,941.06
2017-04-30T01:31:57.858Z,941.1
2017-04-30T01:32:25.942Z,941.06
2017-04-30T01:32:54.041Z,941.1
2017-04-30T01:33:22.136Z,941.11
2017-04-30T01:33:50.251Z,941.08
2017-04-30T01:34:18.274Z,941.15
2017-04-30T01:34:46.375Z,941.12
2017-04-30T01:35:14.407Z,941.11
2017-04-30T01:35:42.518Z,941.1
2017-04-30T01:36:10.627Z,941.13
2017-04-30T01:36:38.736Z,941.06
2017-04-30T01:37:06.857Z,941.04
2017-04-30T01:37:35.142Z,941.07
2017-04-30T01:38:03.319Z,941.09
2017-04-30T01:38:31.375Z,941.1
2017-04-30T01:38:59.454Z,941.04
2017-04-30T01:39:27.479Z,941.06
2017-04-30T01:39:55.610Z,941.05
2017-04-30T01:40:23.737Z,941.07
2017-04-30T01:40:51.834Z,941.07
2017-04-30T01:41:19.837Z,941.05
2017-04-30T01:41:47.935Z,941.05
2017-04-30T01:42:15.950Z,941.06
2017-04-30T01:42:44.038Z,941.08
2017-04-30T01:43:12.126Z,941
2017-04-30T01:43:40.252Z,941.05
2017-04-30T01:44:08.263Z,941.05
2017-04-30T01:44:36.260Z,941.02
2017-04-30T01:45:04.353Z,941.03
2017-04-30T01:45:32.453Z,941.05
2017-04-30T01:46:00.559Z,941.06
2017-04-30T01:46:28.664Z,941.01
2017-04-30T01:46:56.679Z,941
2017-04-30T01:47:24.591Z,940.94
2017-04-30T01:47:52.612Z,940.97
2017-04-30T01:48:20.619Z,940.93
2017-04-30T01:48:48.735Z,940.94
2017-04-30T01:49:16.845Z,940.97
2017-04-30T01:49:44.841Z,940.9
2017-04-30T01:50:12.842Z,940.9
2017-04-30T01:50:40.854Z,940.91
2017-04-30T01:51:08.968Z,940.91
2017-04-30T01:51:37.062Z,940.93
2017-04-30T01:52:05.167Z,940.86
2017-04-30T01:52:33.261Z,940.94
2017-04-30T01:53:01.265Z,940.92
2017-04-30T01:53:29.199Z,940.9
2017-04-30T01:53:57.278Z,940.92
2017-04-30T01:54:25.377Z,940.93
2017-04-30T01:54:53.492Z,940.86
2017-04-30T01:55:21.603Z,940.91
2017-04-30T01:55:49.714Z,940.9
2017-04-30T01:56:17.826Z,940.91
2017-04-30T01:56:45.855Z,940.9
2017-04-30T01:57:13.859Z,940.93
2017-04-30T01:57:41.856Z,940.89
2017-04-30T01:58:09.962Z,940.88
2017-04-30T01:58:38.078Z,940.93
2017-04-30T01:59:06.199Z,940.88
2017-04-30T01:59:34.298Z,940.92
2017-04-30T02:00:02.409Z,940.94
2017-04-30T02:00:30.500Z,940.96
2017-04-30T02:00:58.528Z,940.96
2017-04-30T02:01:26.616Z,940.97
2017-04-30T02:01:54.635Z,940.96
2017-04-30T02:02:22.750Z,940.94
2017-04-30T02:02:50.846Z,941.01
2017-04-30T02:03:18.760Z,941.03
2017-04-30T02:03:46.872Z,940.99
2017-04-30T02:04:14.955Z,941
2017-04-30T02:04:43.059Z,941.01
2017-04-30T02:05:11.158Z,940.97
2017-04-30T02:05:39.182Z,940.96
2017-04-30T02:06:07.294Z,941.03
2017-04-30T02:06:35.308Z,940.99
2017-04-30T02:07:03.402Z,941.02
2017-04-30T02:07:31.500Z,940.97
2017-04-30T02:07:59.509Z,941
2017-04-30T02:08:27.621Z,941.01
2017-04-30T02:08:55.652Z,940.98
2017-04-30T02:09:23.624Z,940.97
2017-04-30T02:09:51.661Z,940.98
2017-04-30T02:10:19.676Z,940.99
2017-04-30T02:10:47.768Z,940.99
2017-04-30T02:11:15.892Z,940.97
2017-04-30T02:11:44.006Z,940.95
2017-04-30T02:12:12.111Z,940.97
2017-04-30T02:12:40.029Z,940.95
2017-04-30T02:13:08.149Z,940.94
2017-04-30T02:13:36.278Z,940.98
2017-04-30T02:14:04.373Z,940.9
2017-04-30T02:14:32.385Z,940.96
2017-04-30T02:15:00.489Z,940.98
2017-04-30T02:15:28.589Z,940.99
2017-04-30T02:15:56.693Z,940.96
2017-04-30T02:16:24.803Z,940.93
2017-04-30T02:16:52.813Z,941.03
2017-04-30T02:17:20.923Z,940.96
2017-04-30T02:17:49.009Z,940.96
2017-04-30T02:18:17.108Z,940.94
2017-04-30T02:18:45.213Z,940.97
2017-04-30T02:19:13.315Z,940.95
2017-04-30T02:19:41.412Z,940.97
2017-04-30T02:20:09.511Z,940.92
2017-04-30T02:20:37.524Z,940.94
2017-04-30T02:21:05.536Z,940.94
2017-04-30T02:21:33.639Z,940.85
2017-04-30T02:22:01.668Z,940.97
2017-04-30T02:22:29.554Z,940.89
2017-04-30T02:22:57.670Z,940.93
2017-04-30T02:23:25.759Z,940.91
2017-04-30T02:23:53.850Z,940.87
2017-04-30T02:24:21.847Z,940.89
2017-04-30T02:24:49.947Z,940.91
2017-04-30T02:25:17.992Z,940.87
2017-04-30T02:25:46.113Z,940.91
2017-04-30T02:26:14.125Z,940.91
2017-04-30T02:26:42.222Z,940.88
2017-04-30T02:27:10.372Z,940.92
2017-04-30T02:27:38.468Z,940.9
2017-04-30T02:28:06.403Z,940.89
2017-04-30T02:28:34.494Z,940.92
2017-04-30T02:29:02.600Z,940.9
2017-04-30T02:29:30.741Z,940.87
2017-04-30T02:29:58.848Z,940.97
2017-04-30T02:30:26.849Z,940.92
2017-04-30T02:30:54.843Z,940.89
2017-04-30T02:31:22.940Z,940.85
2017-04-30T02:31:51.068Z,940.95
2017-04-30T02:32:19.077Z,940.94
2017-04-30T02:32:47.164Z,940.87
2017-04-30T02:33:15.285Z,940.9
2017-04-30T02:33:43.291Z,940.93
2017-04-30T02:34:11.402Z,940.91
2017-04-30T02:34:39.501Z,940.89
2017-04-30T02:35:07.598Z,940.87
2017-04-30T02:35:35.599Z,940.84
2017-04-30T02:36:03.700Z,940.9
2017-04-30T02:36:31.801Z,940.86
2017-04-30T02:36:59.908Z,940.87
2017-04-30T02:37:27.934Z,940.88
2017-04-30T02:37:56.031Z,940.88
2017-04-30T02:38:24.041Z,940.9
2017-04-30T02:38:52.142Z,940.9
2017-04-30T02:39:20.252Z,940.89
2017-04-30T02:39:48.885Z,940.92
2017-04-30T02:40:18.550Z,940.91
2017-04-30T02:40:46.934Z,940.9
2017-04-30T02:41:15.500Z,940.9
2017-04-30T02:41:43.978Z,940.88
2017-04-30T02:42:12.346Z,940.8
2017-04-30T02:42:40.804Z,940.86
2017-04-30T02:43:09.358Z,940.9
2017-04-30T02:43:37.841Z,940.87
2017-04-30T02:44:06.311Z,940.88
2017-04-30T02:44:34.770Z,940.89
2017-04-30T02:45:03.328Z,940.88
2017-04-30T02:45:31.883Z,940.84
2017-04-30T02:46:00.457Z,940.88
2017-04-30T02:46:28.921Z,940.91
2017-04-30T02:46:57.491Z,940.82
2017-04-30T02:47:26.069Z,940.85
2017-04-30T02:47:54.647Z,940.84
2017-04-30T02:48:23.205Z,940.88
2017-04-30T02:48:51.771Z,940.84
2017-04-30T02:49:20.330Z,940.87
2017-04-30T02:49:48.918Z,940.87
2017-04-30T02:50:17.474Z,940.86
2017-04-30T02:50:46.035Z,940.85
2017-04-30T02:51:14.611Z,940.85
2017-04-30T02:51:43.188Z,940.87
2017-04-30T02:52:11.763Z,940.88
2017-04-30T02:52:40.235Z,940.85
2017-04-30T02:53:08.781Z,940.85
2017-04-30T02:53:37.353Z,940.84
2017-04-30T02:54:05.920Z,940.86
2017-04-30T02:54:34.393Z,940.79
2017-04-30T02:55:02.981Z,940.8
2017-04-30T02:55:31.474Z,940.84
2017-04-30T02:56:00.058Z,940.78
2017-04-30T02:56:28.435Z,940.79
2017-04-30T02:56:57.001Z,940.81
2017-04-30T02:57:25.476Z,940.78
2017-04-30T02:57:54.032Z,940.76
2017-04-30T02:58:22.591Z,940.79
2017-04-30T02:58:51.055Z,940.76
2017-04-30T02:59:19.434Z,940.79
2017-04-30T02:59:48.248Z,940.79
2017-04-30T03:00:16.704Z,940.81
2017-04-30T03:00:45.183Z,940.71
2017-04-30T03:01:13.648Z,940.71
2017-04-30T03:01:42.123Z,940.74
2017-04-30T03:02:10.700Z,940.7
2017-04-30T03:02:39.202Z,940.71
2017-04-30T03:03:07.766Z,940.67
2017-04-30T03:03:36.345Z,940.71
2017-04-30T03:04:04.933Z,940.66
2017-04-30T03:04:33.403Z,940.69
2017-04-30T03:05:01.871Z,940.66
2017-04-30T03:05:30.437Z,940.65
2017-04-30T03:05:59.002Z,940.71
2017-04-30T03:06:27.578Z,940.72
2017-04-30T03:06:56.163Z,940.67
2017-04-30T03:07:24.648Z,940.69
2017-04-30T03:07:53.210Z,940.68
2017-04-30T03:08:21.768Z,940.73
2017-04-30T03:08:50.257Z,940.71
2017-04-30T03:09:18.722Z,940.64
2017-04-30T03:09:47.274Z,940.67
2017-04-30T03:10:15.855Z,940.67
2017-04-30T03:10:44.348Z,940.68
2017-04-30T03:11:12.948Z,940.69
2017-04-30T03:11:41.409Z,940.74
2017-04-30T03:12:09.964Z,940.72
2017-04-30T03:12:38.454Z,940.8
2017-04-30T03:13:07.025Z,940.76
2017-04-30T03:13:35.603Z,940.8
2017-04-30T03:14:04.181Z,940.82
2017-04-30T03:14:32.784Z,940.78
2017-04-30T03:15:01.314Z,940.8
2017-04-30T03:15:29.879Z,940.77
2017-04-30T03:15:58.431Z,940.77
2017-04-30T03:16:26.982Z,940.79
2017-04-30T03:16:55.546Z,940.81
2017-04-30T03:17:24.089Z,940.81
2017-04-30T03:17:52.676Z,940.77
2017-04-30T03:18:21.252Z,940.79
2017-04-30T03:18:49.829Z,940.77
2017-04-30T03:19:18.313Z,940.78
2017-04-30T03:19:46.885Z,940.78
2017-04-30T03:20:15.497Z,940.81
2017-04-30T03:20:44.050Z,940.81
2017-04-30T03:21:12.536Z,940.72
2017-04-30T03:21:41.086Z,940.76
2017-04-30T03:22:09.661Z,940.75
2017-04-30T03:22:38.209Z,940.79
2017-04-30T03:23:06.783Z,940.76
2017-04-30T03:23:35.272Z,940.72
2017-04-30T03:24:03.834Z,940.74
2017-04-30T03:24:32.331Z,940.73
2017-04-30T03:25:00.909Z,940.74
2017-04-30T03:25:29.500Z,940.73
2017-04-30T03:25:57.982Z,940.7
2017-04-30T03:26:26.630Z,940.67
2017-04-30T03:26:55.116Z,940.66
2017-04-30T03:27:23.862Z,940.68
2017-04-30T03:27:52.423Z,940.65
2017-04-30T03:28:20.987Z,940.66
2017-04-30T03:28:49.387Z,940.63
2017-04-30T03:29:17.954Z,940.66
2017-04-30T03:29:46.550Z,940.64
2017-04-30T03:30:14.852Z,940.66
2017-04-30T03:30:43.695Z,940.65
2017-04-30T03:31:12.140Z,940.67
2017-04-30T03:31:40.698Z,940.65
2017-04-30T03:32:09.290Z,940.62
2017-04-30T03:32:37.853Z,940.68
2017-04-30T03:33:06.343Z,940.63
2017-04-30T03:33:34.810Z,940.65
2017-04-30T03:34:03.365Z,940.64
2017-04-30T03:34:31.952Z,940.65
2017-04-30T03:35:00.540Z,940.68
2017-04-30T03:35:29.017Z,940.64
2017-04-30T03:35:57.600Z,940.67
2017-04-30T03:36:26.163Z,940.63
2017-04-30T03:36:54.714Z,940.66
2017-04-30T03:37:23.176Z,940.66
2017-04-30T03:37:51.751Z,940.66
2017-04-30T03:38:20.221Z,940.63
2017-04-30T03:38:48.683Z,940.64
2017-04-30T03:39:17.159Z,940.62
2017-04-30T03:39:45.713Z,940.55
2017-04-30T03:40:14.275Z,940.6
2017-04-30T03:40:42.835Z,940.6
2017-04-30T03:41:11.412Z,940.61
2017-04-30T03:41:39.892Z,940.62
2017-04-30T03:42:08.455Z,940.58
2017-04-30T03:42:36.819Z,940.6
2017-04-30T03:43:05.401Z,940.55
2017-04-30T03:43:33.968Z,940.53
2017-04-30T03:44:02.526Z,940.52
2017-04-30T03:44:31.014Z,940.52
2017-04-30T03:44:59.579Z,940.55
2017-04-30T03:45:28.149Z,940.5
2017-04-30T03:45:56.692Z,940.55
2017-04-30T03:46:25.072Z,940.48
2017-04-30T03:46:53.466Z,940.44
2017-04-30T03:47:21.582Z,940.45
2017-04-30T03:47:49.695Z,940.38
2017-04-30T03:48:17.824Z,940.44
2017-04-30T03:48:45.841Z,940.33
2017-04-30T03:49:13.861Z,940.33
2017-04-30T03:49:41.979Z,940.39
2017-04-30T03:50:09.981Z,940.38
2017-04-30T03:50:38.071Z,940.32
2017-04-30T03:51:06.159Z,940.38
2017-04-30T03:51:34.251Z,940.35
2017-04-30T03:52:02.371Z,940.36
2017-04-30T03:52:30.187Z,940.38
2017-04-30T03:52:58.301Z,940.37
2017-04-30T03:53:26.314Z,940.34
2017-04-30T03:53:54.441Z,940.32
2017-04-30T03:54:22.465Z,940.3
2017-04-30T03:54:50.575Z,940.34
2017-04-30T03:55:18.501Z,940.33
2017-04-30T03:55:46.607Z,940.3
2017-04-30T03:56:14.723Z,940.41
2017-04-30T03:56:42.850Z,940.39
2017-04-30T03:57:10.851Z,940.31
2017-04-30T03:57:38.950Z,940.38
2017-04-30T03:58:07.055Z,940.34
2017-04-30T03:58:35.170Z,940.38
2017-04-30T03:59:03.268Z,940.35
2017-04-30T03:59:31.380Z,940.35
2017-04-30T03:59:59.490Z,940.29
2017-04-30T04:00:27.411Z,940.33
2017-04-30T04:00:57.580Z,940.35
2017-04-30T04:01:25.690Z,940.38
2017-04-30T04:01:53.811Z,940.33
2017-04-30T04:02:21.832Z,940.29
2017-04-30T04:02:49.881Z,940.3
2017-04-30T04:03:17.952Z,940.34
2017-04-30T04:03:46.057Z,940.32
2017-04-30T04:04:14.155Z,940.37
2017-04-30T04:04:42.254Z,940.31
2017-04-30T04:05:10.368Z,940.36
2017-04-30T04:05:38.394Z,940.32
2017-04-30T04:06:06.411Z,940.32
2017-04-30T04:06:34.415Z,940.34
2017-04-30T04:07:02.440Z,940.29
2017-04-30T04:07:30.549Z,940.34
2017-04-30T04:07:58.633Z,940.34
2017-04-30T04:08:26.637Z,940.3
2017-04-30T04:08:54.644Z,940.27
2017-04-30T04:09:22.742Z,940.3
2017-04-30T04:09:50.849Z,940.28
2017-04-30T04:10:19.242Z,940.32
2017-04-30T04:10:47.355Z,940.29
2017-04-30T04:11:15.477Z,940.3
2017-04-30T04:11:43.405Z,940.32
2017-04-30T04:12:11.511Z,940.3
2017-04-30T04:12:39.513Z,940.26
2017-04-30T04:13:07.630Z,940.26
2017-04-30T04:13:35.732Z,940.25
2017-04-30T04:14:03.833Z,940.25
2017-04-30T04:14:31.933Z,940.24
2017-04-30T04:15:00.037Z,940.26
2017-04-30T04:15:28.162Z,940.21
2017-04-30T04:15:56.171Z,940.17
2017-04-30T04:16:24.281Z,940.19
2017-04-30T04:16:52.378Z,940.17
2017-04-30T04:17:20.491Z,940.14
2017-04-30T04:17:48.596Z,940.18
2017-04-30T04:18:16.712Z,940.18
2017-04-30T04:18:44.808Z,940.15
2017-04-30T04:19:12.932Z,940.18
2017-04-30T04:19:40.947Z,940.16
2017-04-30T04:20:09.034Z,940.17
2017-04-30T04:20:37.048Z,940.19
2017-04-30T04:21:05.162Z,940.16
2017-04-30T04:21:33.306Z,940.2
2017-04-30T04:22:01.355Z,940.19
2017-04-30T04:22:29.779Z,940.15
2017-04-30T04:22:57.868Z,940.16
2017-04-30T04:23:25.971Z,940.19
2017-04-30T04:23:54.084Z,940.15
2017-04-30T04:24:22.197Z,940.12
2017-04-30T04:24:50.312Z,940.17
2017-04-30T04:25:18.647Z,940.11
2017-04-30T04:31:50.648Z,940.12
2017-04-30T04:32:19.025Z,940.07
2017-04-30T04:32:47.608Z,940.08
2017-04-30T04:33:16.181Z,940.05
2017-04-30T04:33:44.749Z,940.06
2017-04-30T04:34:13.329Z,940.03
2017-04-30T04:34:41.898Z,940.07
2017-04-30T04:35:10.466Z,940.04
2017-04-30T04:35:39.021Z,940.06
2017-04-30T04:36:07.586Z,940.01
2017-04-30T04:36:36.055Z,940.03
2017-04-30T04:37:04.610Z,940.03
2017-04-30T04:37:33.169Z,940
2017-04-30T04:38:01.740Z,939.99
2017-04-30T04:38:30.222Z,939.98
2017-04-30T04:38:58.802Z,939.96
2017-04-30T04:39:27.372Z,939.99
2017-04-30T04:39:55.857Z,939.98
2017-04-30T04:40:24.320Z,940.01
2017-04-30T04:40:52.888Z,939.96
2017-04-30T04:41:21.456Z,940.01
2017-04-30T04:41:50.013Z,939.98
2017-04-30T04:42:18.578Z,940.02
2017-04-30T04:42:47.124Z,940.01
2017-04-30T04:43:15.672Z,940.01
2017-04-30T04:43:44.226Z,940.03
2017-04-30T04:44:12.777Z,940.03
2017-04-30T04:44:41.347Z,940.02
2017-04-30T04:45:09.894Z,940.01
2017-04-30T04:45:38.493Z,940.01
2017-04-30T04:46:07.055Z,940.02
2017-04-30T04:46:35.632Z,940
2017-04-30T04:47:04.206Z,940.01
2017-04-30T04:47:32.761Z,939.99
2017-04-30T04:48:01.354Z,940.03
2017-04-30T04:48:29.822Z,939.98
2017-04-30T04:48:58.294Z,940.04
2017-04-30T04:49:26.872Z,940.03
2017-04-30T04:49:55.419Z,939.98
2017-04-30T04:50:23.986Z,940.05
2017-04-30T04:50:52.557Z,940.04
2017-04-30T04:51:21.122Z,940.07
2017-04-30T04:51:49.585Z,940.03
2017-04-30T04:52:18.142Z,940.03
2017-04-30T04:52:46.695Z,939.98
2017-04-30T04:53:15.247Z,939.99
2017-04-30T04:53:43.815Z,939.97
2017-04-30T04:54:12.415Z,939.96
2017-04-30T04:54:40.938Z,939.91
2017-04-30T04:55:09.496Z,939.94
2017-04-30T04:55:38.072Z,939.88
2017-04-30T04:56:06.668Z,939.94
2017-04-30T04:56:35.113Z,939.92
2017-04-30T04:57:03.686Z,939.93
2017-04-30T04:57:32.151Z,939.92
2017-04-30T04:58:00.725Z,939.92
2017-04-30T04:58:29.285Z,939.92
2017-04-30T04:58:57.851Z,939.92
2017-04-30T04:59:26.414Z,939.87
2017-04-30T04:59:55.137Z,939.85
2017-04-30T05:00:23.627Z,939.83
2017-04-30T05:00:52.200Z,939.85
2017-04-30T05:01:20.761Z,939.82
2017-04-30T05:01:49.142Z,939.8
2017-04-30T05:02:17.708Z,939.8
2017-04-30T05:02:46.269Z,939.83
2017-04-30T05:03:14.839Z,939.77
2017-04-30T05:03:43.401Z,939.78
2017-04-30T05:04:11.967Z,939.8
2017-04-30T05:04:40.549Z,939.82
2017-04-30T05:05:09.111Z,939.77
2017-04-30T05:05:37.577Z,939.77
2017-04-30T05:06:06.155Z,939.72
2017-04-30T05:06:34.528Z,939.75
2017-04-30T05:07:03.087Z,939.74
2017-04-30T05:07:31.649Z,939.71
2017-04-30T05:08:00.228Z,939.76
2017-04-30T05:08:28.693Z,939.75
2017-04-30T05:08:57.254Z,939.74
2017-04-30T05:09:25.753Z,939.73
2017-04-30T05:09:54.320Z,939.73
2017-04-30T05:10:22.714Z,939.72
2017-04-30T05:10:51.282Z,939.78
2017-04-30T05:11:19.844Z,939.79
2017-04-30T05:11:48.406Z,939.76
2017-04-30T05:12:16.983Z,939.81
2017-04-30T05:12:45.539Z,939.83
2017-04-30T05:13:14.097Z,939.83
2017-04-30T05:13:42.575Z,939.84
2017-04-30T05:14:11.156Z,939.78
2017-04-30T05:14:39.718Z,939.78
2017-04-30T05:15:08.200Z,939.81
2017-04-30T05:15:36.785Z,939.76
2017-04-30T05:16:05.353Z,939.78
2017-04-30T05:16:33.833Z,939.78
2017-04-30T05:17:02.400Z,939.8
2017-04-30T05:17:30.858Z,939.81
2017-04-30T05:17:59.425Z,939.8
2017-04-30T05:18:27.991Z,939.81
2017-04-30T05:18:56.575Z,939.79
2017-04-30T05:19:25.149Z,939.79
2017-04-30T05:19:53.718Z,939.77
2017-04-30T05:20:22.283Z,939.85
2017-04-30T05:20:50.857Z,939.84
2017-04-30T05:21:19.412Z,939.84
2017-04-30T05:21:47.981Z,939.86
2017-04-30T05:22:16.460Z,939.83
2017-04-30T05:22:45.047Z,939.86
2017-04-30T05:23:13.632Z,939.92
2017-04-30T05:23:42.189Z,939.84
2017-04-30T05:24:10.759Z,939.85
2017-04-30T05:24:39.348Z,939.83
2017-04-30T05:25:07.913Z,939.83
2017-04-30T05:25:36.304Z,939.84
2017-04-30T05:26:04.887Z,939.8
2017-04-30T05:26:33.456Z,939.81
2017-04-30T05:27:02.018Z,939.77
2017-04-30T05:27:30.413Z,939.75
2017-04-30T05:27:58.504Z,939.73
2017-04-30T05:28:26.603Z,939.72
2017-04-30T05:28:54.699Z,939.69
2017-04-30T05:29:22.801Z,939.67
2017-04-30T05:29:50.802Z,939.63
2017-04-30T05:30:18.911Z,939.68
2017-04-30T05:30:46.900Z,939.66
2017-04-30T05:31:14.901Z,939.64
2017-04-30T05:31:43.004Z,939.71
2017-04-30T05:32:10.939Z,939.67
2017-04-30T05:32:38.946Z,939.65
2017-04-30T05:33:07.057Z,939.72
2017-04-30T05:33:35.149Z,939.7
2017-04-30T05:34:03.254Z,939.72
2017-04-30T05:34:31.274Z,939.75
2017-04-30T05:34:59.285Z,939.74
2017-04-30T05:35:27.297Z,939.73
2017-04-30T05:35:55.397Z,939.73
2017-04-30T05:36:23.508Z,939.76
2017-04-30T05:36:51.649Z,939.79
2017-04-30T05:37:19.721Z,939.73
2017-04-30T05:37:47.742Z,939.75
2017-04-30T05:38:15.830Z,939.71
2017-04-30T05:38:43.946Z,939.68
2017-04-30T05:39:11.952Z,939.69
2017-04-30T05:39:40.051Z,939.67
2017-04-30T05:40:08.142Z,939.64
2017-04-30T05:40:36.162Z,939.62
2017-04-30T05:41:04.271Z,939.61
2017-04-30T05:41:32.383Z,939.55
2017-04-30T05:42:00.379Z,939.59
2017-04-30T05:42:28.525Z,939.58
2017-04-30T05:42:56.622Z,939.61
2017-04-30T05:43:24.716Z,939.55
2017-04-30T05:43:52.812Z,939.6
2017-04-30T05:44:20.915Z,939.56
2017-04-30T05:44:48.919Z,939.58
2017-04-30T05:45:16.832Z,939.56
2017-04-30T05:45:44.860Z,939.57
2017-04-30T05:46:12.965Z,939.6
2017-04-30T05:46:41.089Z,939.59
2017-04-30T05:47:09.208Z,939.56
2017-04-30T05:47:37.301Z,939.59
2017-04-30T05:48:05.310Z,939.57
2017-04-30T05:48:33.410Z,939.59
2017-04-30T05:49:01.525Z,939.59
2017-04-30T05:49:29.533Z,939.58
2017-04-30T05:49:57.625Z,939.55
2017-04-30T05:50:25.712Z,939.55
2017-04-30T05:50:53.715Z,939.55
2017-04-30T05:51:21.812Z,939.55
2017-04-30T05:51:49.929Z,939.54
2017-04-30T05:52:17.849Z,939.53
2017-04-30T05:52:45.948Z,939.51
2017-04-30T05:53:14.036Z,939.6
2017-04-30T05:53:42.126Z,939.53
2017-04-30T05:54:10.247Z,939.56
2017-04-30T05:54:38.337Z,939.53
2017-04-30T05:55:06.450Z,939.53
2017-04-30T05:55:34.547Z,939.55
2017-04-30T05:56:02.570Z,939.47
2017-04-30T05:56:30.665Z,939.57
2017-04-30T05:56:58.769Z,939.55
2017-04-30T05:57:26.882Z,939.55
2017-04-30T05:57:54.988Z,939.54
2017-04-30T05:58:23.070Z,939.53
2017-04-30T05:58:51.081Z,939.59
2017-04-30T05:59:19.193Z,939.59
2017-04-30T05:59:47.626Z,939.5